createdAt,value
2023-03-05T00:02:08.726Z,25.20
2023-03-05T00:04:42.023Z,25.20
2023-03-05T00:07:15.123Z,25.20
2023-03-05T00:09:48.205Z,25.20
2023-03-05T00:12:21.315Z,25.20
2023-03-05T00:14:55.787Z,25.10
2023-03-05T00:17:28.893Z,25.20
2023-03-05T00:20:02.485Z,25.20
2023-03-05T00:22:35.822Z,25.20
2023-03-05T00:25:09.408Z,25.20
2023-03-05T00:27:42.489Z,25.20
2023-03-05T00:30:17.263Z,25.20
2023-03-05T00:32:50.379Z,25.20
2023-03-05T00:35:23.492Z,25.20
2023-03-05T00:37:56.832Z,25.20
2023-03-05T00:40:29.980Z,25.20
2023-03-05T00:43:03.222Z,25.20
2023-03-05T00:45:38.267Z,25.20
2023-03-05T00:48:11.610Z,25.20
2023-03-05T00:50:44.770Z,25.20
2023-03-05T00:53:17.941Z,25.20
2023-03-05T00:55:51.055Z,25.20
2023-03-05T00:58:24.169Z,25.20
2023-03-05T01:01:00.327Z,25.20
2023-03-05T01:03:34.271Z,25.20
2023-03-05T01:06:08.757Z,25.20
2023-03-05T01:08:41.986Z,25.20
2023-03-05T01:11:15.180Z,25.10
2023-03-05T01:13:48.315Z,25.10
2023-03-05T01:16:22.931Z,25.20
2023-03-05T01:18:56.280Z,25.20
2023-03-05T01:21:29.421Z,25.20
2023-03-05T01:24:02.950Z,25.10
2023-03-05T01:26:36.037Z,25.20
2023-03-05T01:29:09.310Z,25.10
2023-03-05T01:31:43.858Z,25.20
2023-03-05T01:34:18.134Z,25.20
2023-03-05T01:36:51.312Z,25.10
2023-03-05T01:39:24.483Z,25.10
2023-03-05T01:41:57.569Z,25.10
2023-03-05T01:44:31.196Z,25.10
2023-03-05T01:47:07.782Z,25.10
2023-03-05T01:49:44.672Z,25.10
2023-03-05T01:52:18.838Z,25.10
2023-03-05T01:54:54.512Z,25.10
2023-03-05T01:57:29.498Z,25.10
2023-03-05T02:00:04.618Z,25.10
2023-03-05T02:03:07.998Z,25.10
2023-03-05T02:05:44.689Z,25.10
2023-03-05T02:08:19.308Z,25.10
2023-03-05T02:10:54.293Z,25.10
2023-03-05T02:13:32.292Z,25.10
2023-03-05T02:16:05.764Z,25.10
2023-03-05T02:18:40.274Z,25.10
2023-03-05T02:21:15.084Z,25.10
2023-03-05T02:23:48.216Z,25.10
2023-03-05T02:26:21.294Z,25.10
2023-03-05T02:28:57.051Z,25.10
2023-03-05T02:31:31.234Z,25.10
2023-03-05T02:34:04.475Z,25.10
2023-03-05T02:36:39.064Z,25.10
2023-03-05T02:39:12.356Z,25.10
2023-03-05T02:41:45.489Z,25.10
2023-03-05T02:44:18.547Z,25.10
2023-03-05T02:46:51.641Z,25.10
2023-03-05T02:49:24.743Z,25.10
2023-03-05T02:51:59.170Z,25.10
2023-03-05T02:54:32.400Z,25.10
2023-03-05T02:57:05.531Z,25.10
2023-03-05T02:59:38.707Z,25.10
2023-03-05T03:02:11.838Z,25.10
2023-03-05T03:04:45.673Z,25.10
2023-03-05T03:07:20.247Z,25.10
2023-03-05T03:09:53.319Z,25.10
2023-03-05T03:12:26.399Z,25.10
2023-03-05T03:15:01.828Z,25.10
2023-03-05T03:17:36.195Z,25.10
2023-03-05T03:20:11.171Z,25.00
2023-03-05T03:22:46.574Z,25.00
2023-03-05T03:25:20.771Z,25.10
2023-03-05T03:27:56.202Z,25.10
2023-03-05T03:30:29.224Z,25.10
2023-03-05T03:33:02.302Z,25.10
2023-03-05T03:35:35.421Z,25.10
2023-03-05T03:38:09.886Z,25.10
2023-03-05T03:40:43.308Z,25.10
2023-03-05T03:43:16.435Z,25.10
2023-03-05T03:45:49.507Z,25.10
2023-03-05T03:48:22.629Z,25.10
2023-03-05T03:50:55.670Z,25.10
2023-03-05T03:53:30.113Z,25.10
2023-03-05T03:56:03.605Z,25.10
2023-03-05T03:58:36.694Z,25.10
2023-03-05T04:01:09.778Z,25.10
2023-03-05T04:03:42.872Z,25.10
2023-03-05T04:06:15.967Z,25.00
2023-03-05T04:08:50.570Z,25.10
2023-03-05T04:11:23.704Z,25.10
2023-03-05T04:13:56.842Z,25.10
2023-03-05T04:16:30.061Z,25.00
2023-03-05T04:19:03.146Z,25.00
2023-03-05T04:21:36.195Z,25.00
2023-03-05T04:24:10.823Z,25.00
2023-03-05T04:26:43.989Z,25.10
2023-03-05T04:29:17.017Z,25.00
2023-03-05T04:31:50.113Z,25.00
2023-03-05T04:34:23.249Z,25.10
2023-03-05T04:36:56.297Z,25.00
2023-03-05T04:39:30.879Z,25.00
2023-03-05T04:42:04.077Z,25.00
2023-03-05T04:44:37.504Z,25.00
2023-03-05T04:47:10.766Z,25.00
2023-03-05T04:49:43.918Z,25.00
2023-03-05T04:52:17.632Z,25.00
2023-03-05T04:54:52.078Z,25.00
2023-03-05T04:57:25.161Z,25.00
2023-03-05T04:59:58.503Z,25.00
2023-03-05T05:02:31.607Z,25.00
2023-03-05T05:05:04.834Z,25.00
2023-03-05T05:07:37.919Z,25.00
2023-03-05T05:10:13.152Z,25.00
2023-03-05T05:12:46.232Z,25.00
2023-03-05T05:15:19.370Z,25.00
2023-03-05T05:17:52.690Z,25.00
2023-03-05T05:20:25.885Z,25.00
2023-03-05T05:22:58.973Z,25.00
2023-03-05T05:25:33.487Z,25.00
2023-03-05T05:28:06.782Z,25.00
2023-03-05T05:30:40.205Z,25.00
2023-03-05T05:33:13.294Z,25.00
2023-03-05T05:35:46.366Z,25.00
2023-03-05T05:38:19.713Z,25.00
2023-03-05T05:40:54.143Z,25.00
2023-03-05T05:43:27.299Z,25.00
2023-03-05T05:46:01.472Z,25.00
2023-03-05T05:48:35.920Z,25.00
2023-03-05T05:51:10.180Z,25.00
2023-03-05T05:53:43.608Z,25.00
2023-03-05T05:56:19.560Z,25.00
2023-03-05T05:58:52.790Z,25.00
2023-03-05T06:01:28.038Z,25.00
2023-03-05T06:04:01.401Z,25.00
2023-03-05T06:06:35.031Z,25.00
2023-03-05T06:09:09.993Z,25.00
2023-03-05T06:11:44.460Z,25.00
2023-03-05T06:14:17.594Z,25.00
2023-03-05T06:16:50.764Z,25.00
2023-03-05T06:19:23.886Z,25.00
2023-03-05T06:21:57.600Z,25.00
2023-03-05T06:24:30.758Z,25.00
2023-03-05T06:27:05.387Z,25.00
2023-03-05T06:29:38.473Z,25.00
2023-03-05T06:32:11.611Z,25.00
2023-03-05T06:34:44.676Z,25.00
2023-03-05T06:37:17.806Z,25.00
2023-03-05T06:39:51.058Z,25.00
2023-03-05T06:42:27.404Z,25.00
2023-03-05T06:45:00.483Z,25.00
2023-03-05T06:47:33.903Z,25.00
2023-03-05T06:50:07.527Z,25.00
2023-03-05T06:52:41.079Z,25.00
2023-03-05T06:55:14.167Z,25.00
2023-03-05T06:57:48.667Z,25.00
2023-03-05T07:00:22.475Z,25.00
2023-03-05T07:02:55.573Z,25.00
2023-03-05T07:05:28.804Z,25.00
2023-03-05T07:08:04.158Z,25.00
2023-03-05T07:10:39.242Z,25.00
2023-03-05T07:13:13.721Z,25.00
2023-03-05T07:15:46.886Z,25.00
2023-03-05T07:18:20.206Z,25.00
2023-03-05T07:20:53.294Z,25.00
2023-03-05T07:23:26.345Z,25.00
2023-03-05T07:26:01.840Z,25.00
2023-03-05T07:28:36.379Z,25.00
2023-03-05T07:31:12.427Z,25.00
2023-03-05T07:33:45.487Z,25.10
2023-03-05T07:36:18.643Z,25.10
2023-03-05T07:38:51.673Z,25.10
2023-03-05T07:41:24.827Z,25.10
2023-03-05T07:43:59.268Z,25.10
2023-03-05T07:46:33.678Z,25.10
2023-03-05T07:49:06.879Z,25.10
2023-03-05T07:51:41.368Z,25.10
2023-03-05T07:54:14.490Z,25.10
2023-03-05T07:56:47.730Z,25.10
2023-03-05T07:59:22.345Z,25.00
2023-03-05T08:01:55.712Z,25.10
2023-03-05T08:04:31.929Z,25.10
2023-03-05T08:07:05.310Z,25.10
2023-03-05T08:09:38.460Z,25.10
2023-03-05T08:12:11.627Z,25.10
2023-03-05T08:14:47.524Z,25.10
2023-03-05T08:17:20.596Z,25.10
2023-03-05T08:19:54.650Z,25.10
2023-03-05T08:22:27.777Z,25.10
2023-03-05T08:25:00.954Z,25.10
2023-03-05T08:27:34.088Z,25.10
2023-03-05T08:30:09.831Z,25.20
2023-03-05T08:32:43.077Z,25.20
2023-03-05T08:35:16.310Z,25.10
2023-03-05T08:37:49.530Z,25.20
2023-03-05T08:40:22.595Z,25.20
2023-03-05T08:42:55.654Z,25.20
2023-03-05T08:45:30.235Z,25.20
2023-03-05T08:48:03.299Z,25.20
2023-03-05T08:50:38.891Z,25.20
2023-03-05T08:53:12.163Z,25.20
2023-03-05T08:55:45.286Z,25.20
2023-03-05T08:58:18.868Z,25.20
2023-03-05T09:00:53.335Z,25.20
2023-03-05T09:03:26.926Z,25.20
2023-03-05T09:06:00.412Z,25.10
2023-03-05T09:08:33.931Z,25.20
2023-03-05T09:11:07.726Z,25.20
2023-03-05T09:13:41.103Z,25.20
2023-03-05T09:16:16.592Z,25.20
2023-03-05T09:18:49.713Z,25.10
2023-03-05T09:21:22.868Z,25.10
2023-03-05T09:23:59.635Z,25.10
2023-03-05T09:26:32.788Z,25.10
2023-03-05T09:29:07.553Z,25.10
2023-03-05T09:31:43.423Z,25.10
2023-03-05T09:34:16.726Z,25.10
2023-03-05T09:36:50.935Z,25.10
2023-03-05T09:39:24.017Z,25.10
2023-03-05T09:42:14.593Z,25.10
2023-03-05T09:44:53.459Z,25.10
2023-03-05T09:47:37.597Z,25.10
2023-03-05T09:50:15.326Z,25.00
2023-03-05T09:52:51.186Z,25.10
2023-03-05T09:55:26.486Z,25.00
2023-03-05T09:58:04.427Z,24.90
2023-03-05T10:00:40.266Z,24.80
2023-03-05T10:03:20.911Z,24.70
2023-03-05T10:06:08.911Z,24.70
2023-03-05T10:08:49.776Z,24.60
2023-03-05T10:11:40.780Z,24.60
2023-03-05T10:14:15.299Z,24.60
2023-03-05T10:16:56.225Z,24.60
2023-03-05T10:19:40.929Z,24.60
2023-03-05T10:22:17.142Z,24.60
2023-03-05T10:24:58.541Z,24.60
2023-03-05T10:27:38.680Z,24.70
2023-03-05T10:30:23.037Z,24.70
2023-03-05T10:33:00.848Z,24.70
2023-03-05T10:35:42.444Z,24.70
2023-03-05T10:38:21.387Z,24.70
2023-03-05T10:40:55.679Z,24.70
2023-03-05T10:43:34.967Z,24.70
2023-03-05T10:46:14.396Z,24.80
2023-03-05T10:48:51.062Z,24.80
2023-03-05T10:51:30.044Z,24.80
2023-03-05T10:54:05.149Z,24.80
2023-03-05T10:56:38.222Z,24.90
2023-03-05T10:59:11.363Z,24.90
2023-03-05T11:02:02.375Z,24.90
2023-03-05T11:04:37.194Z,24.90
2023-03-05T11:07:30.654Z,24.90
2023-03-05T11:10:06.147Z,25.00
2023-03-05T11:12:40.100Z,25.00
2023-03-05T11:15:30.309Z,25.00
2023-03-05T11:18:36.016Z,25.00
2023-03-05T11:21:10.911Z,25.00
2023-03-05T11:23:45.346Z,25.00
2023-03-05T11:26:20.644Z,25.00
2023-03-05T11:28:57.955Z,25.00
2023-03-05T11:31:32.125Z,25.00
2023-03-05T11:34:06.177Z,25.00
2023-03-05T11:36:39.845Z,25.00
2023-03-05T11:39:17.086Z,25.00
2023-03-05T11:41:51.524Z,25.00
2023-03-05T11:44:27.025Z,25.10
2023-03-05T11:47:01.628Z,25.10
2023-03-05T11:49:37.744Z,25.10
2023-03-05T11:52:14.402Z,25.10
2023-03-05T11:54:57.968Z,25.20
2023-03-05T11:57:34.281Z,25.20
2023-03-05T12:00:10.959Z,25.20
2023-03-05T12:02:44.305Z,25.10
2023-03-05T12:05:18.182Z,25.10
2023-03-05T12:07:53.612Z,25.10
2023-03-05T12:10:28.252Z,25.10
2023-03-05T12:13:05.017Z,25.10
2023-03-05T12:15:47.743Z,25.10
2023-03-05T12:18:32.772Z,25.00
2023-03-05T12:21:07.836Z,25.10
2023-03-05T12:23:48.769Z,25.00
2023-03-05T12:26:56.090Z,25.10
2023-03-05T12:29:30.414Z,25.10
2023-03-05T12:32:04.158Z,25.10
2023-03-05T12:34:48.463Z,25.10
2023-03-05T12:37:36.712Z,25.10
2023-03-05T12:40:21.412Z,25.10
2023-03-05T12:42:57.547Z,25.10
2023-03-05T12:45:35.615Z,25.10
2023-03-05T12:48:27.411Z,25.10
2023-03-05T12:51:00.664Z,25.10
2023-03-05T12:53:33.804Z,25.10
2023-03-05T12:56:14.495Z,25.10
2023-03-05T12:58:51.285Z,25.10
2023-03-05T13:01:34.905Z,25.10
2023-03-05T13:04:14.620Z,25.10
2023-03-05T13:06:51.419Z,25.10
2023-03-05T13:09:31.836Z,25.10
2023-03-05T13:12:08.246Z,25.10
2023-03-05T13:14:45.010Z,25.10
2023-03-05T13:17:39.330Z,25.10
2023-03-05T13:20:37.646Z,25.10
2023-03-05T13:23:15.219Z,25.10
2023-03-05T13:25:58.035Z,25.20
2023-03-05T13:28:31.488Z,25.20
2023-03-05T13:31:13.606Z,25.20
2023-03-05T13:33:54.444Z,25.20
2023-03-05T13:36:28.058Z,25.30
2023-03-05T13:39:03.862Z,25.30
2023-03-05T13:41:38.981Z,25.30
2023-03-05T13:44:19.797Z,25.40
2023-03-05T13:46:54.411Z,25.40
2023-03-05T13:49:28.952Z,25.40
2023-03-05T13:52:03.016Z,25.50
2023-03-05T13:54:36.335Z,25.50
2023-03-05T13:57:09.692Z,25.50
2023-03-05T13:59:53.120Z,25.60
2023-03-05T14:02:28.575Z,25.60
2023-03-05T14:05:01.865Z,25.60
2023-03-05T14:07:39.729Z,25.70
2023-03-05T14:10:28.947Z,25.70
2023-03-05T14:13:03.759Z,25.70
2023-03-05T14:15:36.915Z,25.70
2023-03-05T14:18:18.053Z,25.80
2023-03-05T14:21:02.816Z,25.80
2023-03-05T14:23:40.270Z,25.80
2023-03-05T14:26:20.243Z,25.80
2023-03-05T14:28:54.081Z,25.80
2023-03-05T14:31:28.197Z,25.80
2023-03-05T14:34:03.940Z,25.80
2023-03-05T14:36:39.163Z,25.80
2023-03-05T14:39:26.533Z,25.80
2023-03-05T14:42:18.247Z,25.80
2023-03-05T14:44:51.387Z,25.80
2023-03-05T14:47:24.814Z,25.90
2023-03-05T14:49:59.663Z,25.90
2023-03-05T14:52:32.921Z,25.90
2023-03-05T14:55:06.875Z,25.90
2023-03-05T14:57:40.055Z,25.90
2023-03-05T15:00:16.686Z,25.90
2023-03-05T15:02:49.882Z,25.90
2023-03-05T15:05:24.516Z,26.00
2023-03-05T15:07:57.775Z,26.00
2023-03-05T15:10:30.919Z,26.00
2023-03-05T15:13:04.392Z,26.00
2023-03-05T15:15:37.550Z,26.00
2023-03-05T15:18:11.605Z,26.00
2023-03-05T15:20:46.512Z,26.00
2023-03-05T15:23:19.834Z,25.90
2023-03-05T15:26:05.518Z,25.90
2023-03-05T15:28:39.633Z,25.90
2023-03-05T15:31:13.032Z,25.90
2023-03-05T15:33:46.277Z,25.90
2023-03-05T15:36:20.861Z,25.90
2023-03-05T15:38:55.718Z,25.90
2023-03-05T15:41:29.064Z,25.90
2023-03-05T15:44:02.785Z,25.90
2023-03-05T15:46:36.207Z,25.90
2023-03-05T15:49:09.704Z,25.90
2023-03-05T15:51:44.832Z,25.90
2023-03-05T15:54:18.141Z,25.90
2023-03-05T15:56:52.141Z,25.80
2023-03-05T15:59:26.725Z,25.80
2023-03-05T16:02:00.065Z,25.80
2023-03-05T16:04:33.939Z,25.80
2023-03-05T16:07:09.161Z,25.80
2023-03-05T16:09:43.934Z,25.80
2023-03-05T16:12:19.465Z,25.80
2023-03-05T16:14:52.761Z,25.70
2023-03-05T16:17:26.141Z,25.70
2023-03-05T16:19:59.262Z,25.70
2023-03-05T16:22:33.791Z,25.70
2023-03-05T16:25:07.296Z,25.70
2023-03-05T16:27:40.461Z,25.70
2023-03-05T16:30:15.221Z,25.70
2023-03-05T16:32:48.517Z,25.70
2023-03-05T16:35:21.845Z,25.70
2023-03-05T16:37:56.649Z,25.70
2023-03-05T16:40:56.651Z,25.70
2023-03-05T16:43:23.756Z,25.70
2023-03-05T16:45:56.835Z,25.70
2023-03-05T16:48:30.592Z,25.70
2023-03-05T16:51:03.852Z,25.70
2023-03-05T16:53:39.269Z,25.70
2023-03-05T16:56:12.680Z,25.60
2023-03-05T16:58:45.974Z,25.70
2023-03-05T17:01:20.088Z,25.60
2023-03-05T17:03:53.688Z,25.60
2023-03-05T17:06:28.704Z,25.70
2023-03-05T17:09:03.717Z,25.70
2023-03-05T17:11:36.863Z,25.70
2023-03-05T17:14:10.804Z,25.70
2023-03-05T17:16:44.233Z,25.70
2023-03-05T17:19:17.776Z,25.60
2023-03-05T17:21:52.309Z,25.70
2023-03-05T17:24:27.208Z,25.70
2023-03-05T17:27:00.731Z,25.70
2023-03-05T17:29:34.158Z,25.70
2023-03-05T17:32:07.618Z,25.70
2023-03-05T17:34:41.641Z,25.70
2023-03-05T17:37:16.217Z,25.70
2023-03-05T17:39:50.735Z,25.70
2023-03-05T17:42:23.865Z,25.70
2023-03-05T17:44:59.282Z,25.70
2023-03-05T17:47:33.176Z,25.70
2023-03-05T17:50:07.664Z,25.70
2023-03-05T17:52:41.458Z,25.70
2023-03-05T17:55:18.776Z,25.60
2023-03-05T17:57:52.009Z,25.60
2023-03-05T18:00:26.239Z,25.60
2023-03-05T18:03:00.136Z,25.60
2023-03-05T18:05:33.717Z,25.60
2023-03-05T18:08:06.939Z,25.60
2023-03-05T18:10:41.802Z,25.60
2023-03-05T18:13:15.049Z,25.60
2023-03-05T18:15:48.365Z,25.60
2023-03-05T18:18:21.632Z,25.60
2023-03-05T18:20:55.116Z,25.60
2023-03-05T18:23:28.379Z,25.60
2023-03-05T18:26:03.113Z,25.70
2023-03-05T18:28:36.349Z,25.70
2023-03-05T18:31:09.727Z,25.70
2023-03-05T18:33:43.990Z,25.70
2023-03-05T18:36:17.181Z,25.70
2023-03-05T18:38:50.495Z,25.70
2023-03-05T18:41:28.026Z,25.70
2023-03-05T18:44:01.824Z,25.70
2023-03-05T18:46:35.138Z,25.60
2023-03-05T18:49:09.483Z,25.60
2023-03-05T18:51:42.981Z,25.60
2023-03-05T18:54:19.300Z,25.60
2023-03-05T18:56:53.939Z,25.60
2023-03-05T18:59:27.409Z,25.60
2023-03-05T19:02:00.538Z,25.70
2023-03-05T19:04:33.675Z,25.60
2023-03-05T19:07:07.037Z,25.60
2023-03-05T19:10:02.370Z,25.60
2023-03-05T19:13:07.964Z,25.60
2023-03-05T19:16:06.859Z,25.60
2023-03-05T19:19:11.337Z,25.60
2023-03-05T19:21:48.088Z,25.50
2023-03-05T19:24:21.417Z,25.50
2023-03-05T19:26:56.052Z,25.60
2023-03-05T19:29:32.778Z,25.50
2023-03-05T19:32:08.863Z,25.50
2023-03-05T19:34:42.475Z,25.60
2023-03-05T19:37:15.914Z,25.50
2023-03-05T19:39:49.265Z,25.60
2023-03-05T19:42:22.783Z,25.50
2023-03-05T19:44:58.339Z,25.50
2023-03-05T19:47:33.482Z,25.50
2023-03-05T19:50:07.157Z,25.50
2023-03-05T19:52:40.357Z,25.50
2023-03-05T19:55:13.470Z,25.50
2023-03-05T19:57:47.345Z,25.50
2023-03-05T20:00:21.001Z,25.50
2023-03-05T20:02:55.603Z,25.50
2023-03-05T20:05:28.939Z,25.60
2023-03-05T20:08:02.084Z,25.50
2023-03-05T20:10:35.277Z,25.50
2023-03-05T20:13:08.407Z,25.50
2023-03-05T20:15:41.503Z,25.50
2023-03-05T20:18:16.006Z,25.50
2023-03-05T20:20:52.376Z,25.50
2023-03-05T20:23:25.634Z,25.60
2023-03-05T20:25:58.748Z,25.50
2023-03-05T20:28:31.841Z,25.60
2023-03-05T20:31:05.083Z,25.50
2023-03-05T20:33:39.839Z,25.50
2023-03-05T20:36:12.993Z,25.50
2023-03-05T20:38:46.506Z,25.60
2023-03-05T20:41:20.816Z,25.50
2023-03-05T20:43:54.028Z,25.50
2023-03-05T20:46:28.300Z,25.50
2023-03-05T20:49:03.923Z,25.50
2023-03-05T20:51:38.018Z,25.50
2023-03-05T20:54:13.057Z,25.50
2023-03-05T20:56:46.240Z,25.50
2023-03-05T20:59:19.335Z,25.50
2023-03-05T21:01:52.528Z,25.50
2023-03-05T21:04:27.060Z,25.50
2023-03-05T21:07:00.181Z,25.50
2023-03-05T21:09:33.371Z,25.50
2023-03-05T21:12:08.177Z,25.50
2023-03-05T21:14:41.298Z,25.50
2023-03-05T21:17:14.392Z,25.50
2023-03-05T21:19:48.851Z,25.60
2023-03-05T21:22:21.949Z,25.50
2023-03-05T21:25:20.873Z,25.60
2023-03-05T21:27:57.320Z,25.50
2023-03-05T21:30:33.590Z,25.60
2023-03-05T21:33:08.162Z,25.50
2023-03-05T21:35:42.852Z,25.50
2023-03-05T21:38:16.124Z,25.60
2023-03-05T21:40:50.018Z,25.50
2023-03-05T21:43:24.188Z,25.60
2023-03-05T21:45:57.805Z,25.50
2023-03-05T21:48:31.240Z,25.50
2023-03-05T21:51:33.031Z,25.60
2023-03-05T21:54:12.831Z,25.60
2023-03-05T21:56:46.678Z,25.50
2023-03-05T21:59:19.781Z,25.50
2023-03-05T22:01:52.892Z,25.50
2023-03-05T22:04:26.051Z,25.50
2023-03-05T22:06:59.206Z,25.50
2023-03-05T22:09:33.666Z,25.50
2023-03-05T22:12:54.058Z,25.60
2023-03-05T22:15:41.819Z,25.50
2023-03-05T22:18:15.466Z,25.50
2023-03-05T22:20:48.775Z,25.60
2023-03-05T22:23:23.193Z,25.50
2023-03-05T22:25:58.421Z,25.50
2023-03-05T22:28:32.074Z,25.50
2023-03-05T22:31:05.282Z,25.60
2023-03-05T22:33:38.743Z,25.50
2023-03-05T22:36:12.992Z,25.50
2023-03-05T22:38:46.127Z,25.50
2023-03-05T22:41:20.832Z,25.60
2023-03-05T22:43:54.178Z,25.60
2023-03-05T22:46:27.964Z,25.60
2023-03-05T22:49:01.227Z,25.60
2023-03-05T22:51:34.431Z,25.60
2023-03-05T22:54:07.772Z,25.50
2023-03-05T22:56:42.284Z,25.60
2023-03-05T22:59:15.417Z,25.60
2023-03-05T23:01:48.558Z,25.50
2023-03-05T23:04:49.502Z,25.60
2023-03-05T23:07:23.515Z,25.60
2023-03-05T23:09:57.989Z,25.50
2023-03-05T23:12:33.387Z,25.50
2023-03-05T23:15:08.272Z,25.50
2023-03-05T23:17:41.460Z,25.50
2023-03-05T23:20:16.752Z,25.50
2023-03-05T23:22:52.761Z,25.50
2023-03-05T23:25:26.823Z,25.50
2023-03-05T23:28:01.716Z,25.50
2023-03-05T23:30:37.187Z,25.50
2023-03-05T23:33:14.567Z,25.50
2023-03-05T23:35:51.291Z,25.50
2023-03-05T23:38:25.349Z,25.50
2023-03-05T23:41:01.064Z,25.50
2023-03-05T23:43:36.013Z,25.60
2023-03-05T23:46:11.462Z,25.60
2023-03-05T23:48:44.591Z,25.70
2023-03-05T23:51:17.688Z,25.70
2023-03-05T23:53:50.764Z,25.70
2023-03-05T23:56:23.866Z,25.70
2023-03-05T23:59:00.685Z,25.80
